createdAt,value
2023-04-25T00:01:53.675Z,99074.50
2023-04-25T00:04:23.273Z,99075.50
2023-04-25T00:06:51.589Z,99070.16
2023-04-25T00:09:19.663Z,99069.31
2023-04-25T00:11:49.093Z,99064.81
2023-04-25T00:14:18.222Z,99072.00
2023-04-25T00:16:46.259Z,99048.44
2023-04-25T00:19:14.772Z,99056.78
2023-04-25T00:21:42.859Z,99055.94
2023-04-25T00:24:10.899Z,99054.09
2023-04-25T00:26:38.939Z,99053.25
2023-04-25T00:29:08.411Z,99051.41
2023-04-25T00:31:36.554Z,99067.47
2023-04-25T00:34:04.621Z,99070.16
2023-04-25T00:36:32.849Z,99030.72
2023-04-25T00:39:00.865Z,99064.81
2023-04-25T00:41:28.991Z,99059.44
2023-04-25T00:43:58.132Z,99054.09
2023-04-25T00:46:27.595Z,99054.09
2023-04-25T00:48:55.706Z,99071.16
2023-04-25T00:51:24.199Z,99016.56
2023-04-25T00:53:53.393Z,99030.72
2023-04-25T00:56:22.503Z,99053.25
2023-04-25T00:58:52.053Z,99053.25
2023-04-25T01:01:20.746Z,99047.06
2023-04-25T01:03:52.560Z,99008.72
2023-04-25T01:06:21.249Z,99052.41
2023-04-25T01:08:49.458Z,99047.91
2023-04-25T01:11:17.833Z,99052.41
2023-04-25T01:13:45.948Z,99041.69
2023-04-25T01:16:14.423Z,99052.41
2023-04-25T01:18:43.873Z,99047.06
2023-04-25T01:21:14.389Z,99044.38
2023-04-25T01:23:43.879Z,99047.06
2023-04-25T01:26:13.513Z,99050.75
2023-04-25T01:28:42.828Z,99043.06
2023-04-25T01:31:11.436Z,99055.09
2023-04-25T01:33:39.785Z,99042.53
2023-04-25T01:36:08.592Z,99041.69
2023-04-25T01:38:39.587Z,99011.69
2023-04-25T01:41:07.844Z,99042.53
2023-04-25T01:43:36.643Z,99036.34
2023-04-25T01:46:05.080Z,99031.00
2023-04-25T01:48:33.248Z,99039.03
2023-04-25T01:51:01.348Z,99031.00
2023-04-25T01:53:29.583Z,99031.00
2023-04-25T01:55:59.116Z,99025.66
2023-04-25T01:58:28.225Z,99027.69
2023-04-25T02:00:56.313Z,99029.34
2023-04-25T02:03:24.565Z,99023.97
2023-04-25T02:05:52.820Z,99021.47
2023-04-25T02:08:21.044Z,99018.63
2023-04-25T02:10:49.364Z,99023.97
2023-04-25T02:13:18.800Z,99018.63
2023-04-25T02:15:46.986Z,99018.63
2023-04-25T02:18:17.211Z,99012.25
2023-04-25T02:20:45.513Z,99013.94
2023-04-25T02:23:16.402Z,99023.97
2023-04-25T02:25:44.506Z,99014.94
2023-04-25T02:28:12.688Z,98952.91
2023-04-25T02:30:42.262Z,99004.22
2023-04-25T02:33:10.412Z,99004.22
2023-04-25T02:35:38.502Z,99003.25
2023-04-25T02:38:06.546Z,98998.88
2023-04-25T02:40:34.590Z,98999.72
2023-04-25T02:43:02.725Z,98998.88
2023-04-25T02:45:30.788Z,99000.56
2023-04-25T02:48:00.227Z,98990.84
2023-04-25T02:50:28.509Z,98992.53
2023-04-25T02:52:56.564Z,98988.16
2023-04-25T02:55:27.070Z,98982.00
2023-04-25T02:57:57.389Z,98954.50
2023-04-25T03:00:25.812Z,98988.16
2023-04-25T03:02:53.969Z,98977.47
2023-04-25T03:05:23.542Z,98975.81
2023-04-25T03:07:51.632Z,98975.81
2023-04-25T03:10:19.835Z,98974.16
2023-04-25T03:12:47.903Z,98974.16
2023-04-25T03:15:17.804Z,98979.50
2023-04-25T03:17:46.120Z,98981.16
2023-04-25T03:20:14.345Z,98968.78
2023-04-25T03:22:44.357Z,98970.44
2023-04-25T03:25:12.357Z,98969.59
2023-04-25T03:27:40.441Z,98966.13
2023-04-25T03:30:09.808Z,98964.25
2023-04-25T03:32:37.915Z,98965.94
2023-04-25T03:35:06.755Z,98970.44
2023-04-25T03:37:34.885Z,98968.78
2023-04-25T03:40:05.200Z,98965.09
2023-04-25T03:42:33.216Z,98965.09
2023-04-25T03:45:01.209Z,98965.09
2023-04-25T03:47:29.560Z,98959.75
2023-04-25T03:49:57.902Z,98960.59
2023-04-25T03:52:26.019Z,98956.22
2023-04-25T03:54:54.266Z,98961.41
2023-04-25T03:57:23.708Z,98950.69
2023-04-25T03:59:51.747Z,98953.38
2023-04-25T04:02:20.205Z,98950.69
2023-04-25T04:04:48.519Z,98956.03
2023-04-25T04:07:17.151Z,98949.03
2023-04-25T04:09:45.211Z,98959.75
2023-04-25T04:12:13.233Z,98931.41
2023-04-25T04:14:43.116Z,98962.41
2023-04-25T04:17:11.354Z,98956.03
2023-04-25T04:19:39.462Z,98939.75
2023-04-25T04:22:07.508Z,98960.59
2023-04-25T04:24:35.591Z,98965.09
2023-04-25T04:27:04.261Z,98959.75
2023-04-25T04:29:32.419Z,98957.06
2023-04-25T04:32:02.413Z,98966.75
2023-04-25T04:34:32.071Z,98960.59
2023-04-25T04:37:00.106Z,98964.06
2023-04-25T04:39:28.142Z,98964.06
2023-04-25T04:41:57.485Z,98965.09
2023-04-25T04:44:27.075Z,98966.75
2023-04-25T04:46:55.122Z,98965.09
2023-04-25T04:49:24.684Z,98951.41
2023-04-25T04:51:52.737Z,98961.41
2023-04-25T04:54:20.803Z,98975.81
2023-04-25T04:56:48.858Z,98968.13
2023-04-25T04:59:16.861Z,98970.44
2023-04-25T05:01:44.889Z,98973.97
2023-04-25T05:04:13.014Z,98967.63
2023-04-25T05:06:42.747Z,98972.09
2023-04-25T05:09:10.938Z,98918.66
2023-04-25T05:11:39.049Z,98972.94
2023-04-25T05:14:07.196Z,98974.78
2023-04-25T05:16:36.312Z,98975.81
2023-04-25T05:19:04.663Z,98975.81
2023-04-25T05:21:32.760Z,98972.09
2023-04-25T05:24:02.414Z,98977.47
2023-04-25T05:26:32.143Z,98970.44
2023-04-25T05:29:00.871Z,98979.50
2023-04-25T05:31:29.107Z,98976.66
2023-04-25T05:33:57.577Z,98982.81
2023-04-25T05:36:25.750Z,98979.16
2023-04-25T05:38:53.958Z,98976.47
2023-04-25T05:41:23.678Z,98978.31
2023-04-25T05:43:52.309Z,98975.31
2023-04-25T05:46:21.732Z,98988.16
2023-04-25T05:48:49.849Z,98992.72
2023-04-25T05:51:19.534Z,98989.00
2023-04-25T05:53:47.871Z,98988.16
2023-04-25T05:56:16.090Z,98986.16
2023-04-25T05:58:45.597Z,98985.31
2023-04-25T06:01:15.172Z,99002.22
2023-04-25T06:03:44.326Z,98997.72
2023-04-25T06:06:13.859Z,99005.91
2023-04-25T06:08:42.462Z,98995.91
2023-04-25T06:11:10.567Z,98986.25
2023-04-25T06:13:38.631Z,99010.78
2023-04-25T06:16:08.815Z,99006.72
2023-04-25T06:18:37.008Z,98981.25
2023-04-25T06:21:05.358Z,99013.78
2023-04-25T06:23:33.491Z,99025.28
2023-04-25T06:26:01.620Z,99018.28
2023-04-25T06:28:29.714Z,99025.28
2023-04-25T06:30:57.808Z,99018.13
2023-04-25T06:33:27.890Z,99029.00
2023-04-25T06:35:55.985Z,99035.19
2023-04-25T06:38:24.128Z,99031.66
2023-04-25T06:40:52.434Z,99029.69
2023-04-25T06:43:20.525Z,99038.84
2023-04-25T06:45:48.821Z,99044.19
2023-04-25T06:48:16.933Z,99048.06
2023-04-25T06:50:46.650Z,99051.59
2023-04-25T06:53:14.726Z,99045.75
2023-04-25T06:55:42.784Z,99036.78
2023-04-25T06:58:10.865Z,99042.28
2023-04-25T07:00:38.996Z,99058.97
2023-04-25T07:03:07.209Z,99054.44
2023-04-25T07:05:35.377Z,99065.16
2023-04-25T07:08:05.233Z,99070.50
2023-04-25T07:10:33.382Z,99075.00
2023-04-25T07:13:01.476Z,99072.16
2023-04-25T07:15:29.567Z,99078.53
2023-04-25T07:17:57.687Z,99086.56
2023-04-25T07:20:25.955Z,99080.38
2023-04-25T07:22:54.136Z,99084.53
2023-04-25T07:25:23.830Z,99079.53
2023-04-25T07:27:51.885Z,99089.06
2023-04-25T07:30:19.997Z,99090.91
2023-04-25T07:32:48.165Z,99091.75
2023-04-25T07:35:16.748Z,99057.22
2023-04-25T07:37:44.846Z,99054.53
2023-04-25T07:40:13.502Z,99098.94
2023-04-25T07:42:43.016Z,99106.97
2023-04-25T07:45:11.850Z,99109.97
2023-04-25T07:47:40.564Z,99114.16
2023-04-25T07:50:09.625Z,99110.66
2023-04-25T07:52:37.982Z,99086.44
2023-04-25T07:55:06.995Z,99124.03
2023-04-25T07:57:35.083Z,99120.50
2023-04-25T08:00:06.758Z,99130.22
2023-04-25T08:02:34.954Z,99134.75
2023-04-25T08:05:03.253Z,99138.41
2023-04-25T08:07:31.487Z,99138.41
2023-04-25T08:09:59.591Z,99140.09
2023-04-25T08:12:27.656Z,99136.75
2023-04-25T08:14:55.810Z,99073.16
2023-04-25T08:17:25.297Z,99150.81
2023-04-25T08:19:53.567Z,99153.66
2023-04-25T08:22:21.649Z,99156.50
2023-04-25T08:24:49.706Z,99157.16
2023-04-25T08:27:17.815Z,99159.00
2023-04-25T08:29:45.968Z,99159.00
2023-04-25T08:32:14.229Z,99166.03
2023-04-25T08:34:45.049Z,99165.19
2023-04-25T08:37:13.168Z,99172.22
2023-04-25T08:39:41.353Z,99171.72
2023-04-25T08:42:10.033Z,99170.53
2023-04-25T08:44:38.610Z,99177.56
2023-04-25T08:47:10.221Z,99172.91
2023-04-25T08:49:39.695Z,99188.28
2023-04-25T08:52:12.117Z,99182.94
2023-04-25T08:54:45.410Z,99189.09
2023-04-25T08:57:14.926Z,99199.00
2023-04-25T08:59:46.818Z,99204.34
2023-04-25T09:02:17.604Z,99208.84
2023-04-25T09:04:46.850Z,99220.41
2023-04-25T09:07:20.213Z,99216.03
2023-04-25T09:09:48.247Z,99217.06
2023-04-25T09:12:16.265Z,99218.72
2023-04-25T09:14:44.978Z,99217.06
2023-04-25T09:17:13.338Z,99215.06
2023-04-25T09:19:42.532Z,99221.09
2023-04-25T09:22:10.937Z,99240.13
2023-04-25T09:24:42.615Z,99229.75
2023-04-25T09:27:11.997Z,99231.78
2023-04-25T09:29:41.882Z,99179.66
2023-04-25T09:32:21.599Z,99244.16
2023-04-25T09:34:51.741Z,99254.53
2023-04-25T09:37:21.782Z,99254.53
2023-04-25T09:39:52.542Z,99233.94
2023-04-25T09:42:24.962Z,99235.13
2023-04-25T09:44:54.481Z,99268.91
2023-04-25T09:47:24.590Z,99267.56
2023-04-25T09:49:54.247Z,99281.28
2023-04-25T09:52:25.574Z,99275.94
2023-04-25T09:54:56.005Z,99281.28
2023-04-25T09:57:27.077Z,99204.06
2023-04-25T09:59:57.158Z,99227.13
2023-04-25T10:02:26.998Z,99298.19
2023-04-25T10:04:56.908Z,99304.53
2023-04-25T10:07:28.912Z,99230.28
2023-04-25T10:10:03.052Z,99310.56
2023-04-25T10:12:32.077Z,99309.72
2023-04-25T10:15:01.460Z,99318.75
2023-04-25T10:17:30.251Z,99254.19
2023-04-25T10:19:58.637Z,99308.22
2023-04-25T10:22:34.016Z,99329.47
2023-04-25T10:25:05.204Z,99286.34
2023-04-25T10:27:33.560Z,99317.44
2023-04-25T10:30:07.308Z,99329.47
2023-04-25T10:32:35.902Z,99334.81
2023-04-25T10:35:14.921Z,99266.25
2023-04-25T10:38:05.813Z,99341.84
2023-04-25T10:40:35.690Z,99340.19
2023-04-25T10:43:41.497Z,99340.19
2023-04-25T10:46:27.940Z,99342.84
2023-04-25T10:48:57.809Z,99343.88
2023-04-25T10:51:28.578Z,99340.69
2023-04-25T10:54:02.460Z,99355.41
2023-04-25T10:56:33.545Z,99354.56
2023-04-25T10:59:07.929Z,99355.56
2023-04-25T11:01:39.964Z,99359.94
2023-04-25T11:04:09.259Z,99362.78
2023-04-25T11:06:50.783Z,99368.94
2023-04-25T11:09:20.165Z,99368.94
2023-04-25T11:11:57.808Z,99373.31
2023-04-25T11:14:26.059Z,99368.94
2023-04-25T11:16:58.180Z,99373.47
2023-04-25T11:19:29.251Z,99378.00
2023-04-25T11:21:57.949Z,99374.28
2023-04-25T11:24:29.434Z,99356.25
2023-04-25T11:27:00.111Z,99385.00
2023-04-25T11:29:29.888Z,99318.91
2023-04-25T11:31:59.149Z,99350.69
2023-04-25T11:34:28.064Z,99392.06
2023-04-25T11:36:56.436Z,99391.00
2023-04-25T11:39:26.355Z,99401.06
2023-04-25T11:41:54.700Z,99393.88
2023-04-25T11:44:24.648Z,99390.34
2023-04-25T11:46:52.726Z,99408.13
2023-04-25T11:49:20.726Z,99405.44
2023-04-25T11:51:50.658Z,99406.41
2023-04-25T11:54:18.747Z,99409.09
2023-04-25T11:56:47.819Z,99413.47
2023-04-25T11:59:17.812Z,99413.47
2023-04-25T12:01:52.419Z,99412.09
2023-04-25T12:04:22.583Z,99418.81
2023-04-25T12:06:52.372Z,99428.69
2023-04-25T12:09:23.193Z,99420.28
2023-04-25T12:11:55.899Z,99424.19
2023-04-25T12:14:26.165Z,99427.84
2023-04-25T12:16:58.795Z,99401.03
2023-04-25T12:19:27.558Z,99428.69
2023-04-25T12:21:59.200Z,99433.19
2023-04-25T12:24:29.224Z,99418.97
2023-04-25T12:27:02.486Z,99372.50
2023-04-25T12:29:41.994Z,99333.88
2023-04-25T12:32:17.780Z,99442.91
2023-04-25T12:34:46.168Z,99446.56
2023-04-25T12:37:14.416Z,99456.28
2023-04-25T12:39:42.477Z,99430.84
2023-04-25T12:42:12.902Z,99450.94
2023-04-25T12:44:41.742Z,99460.81
2023-04-25T12:47:09.979Z,99362.78
2023-04-25T12:49:39.561Z,99312.06
2023-04-25T12:52:07.639Z,99459.94
2023-04-25T12:54:36.480Z,99458.97
2023-04-25T12:57:04.998Z,99462.47
2023-04-25T12:59:33.092Z,99471.50
2023-04-25T13:02:01.237Z,99469.84
2023-04-25T13:04:29.547Z,99459.28
2023-04-25T13:06:59.388Z,99469.84
2023-04-25T13:09:27.567Z,99472.53
2023-04-25T13:11:57.286Z,99475.03
2023-04-25T13:14:27.280Z,99476.00
2023-04-25T13:16:55.698Z,99486.72
2023-04-25T13:19:23.985Z,99473.34
2023-04-25T13:21:52.280Z,99483.06
2023-04-25T13:24:21.757Z,99477.72
2023-04-25T13:26:49.859Z,99477.72
2023-04-25T13:29:17.966Z,99476.00
2023-04-25T13:31:46.118Z,99478.03
2023-04-25T13:34:14.245Z,99485.91
2023-04-25T13:36:42.480Z,99485.75
2023-04-25T13:39:10.652Z,99492.06
2023-04-25T13:41:40.131Z,99492.94
2023-04-25T13:44:09.449Z,99492.06
2023-04-25T13:49:12.773Z,99491.25
2023-04-25T13:51:41.716Z,99493.78
2023-04-25T13:54:09.832Z,99494.59
2023-04-25T13:56:39.466Z,99493.78
2023-04-25T13:59:07.590Z,99499.13
2023-04-25T14:01:36.889Z,99499.13
2023-04-25T14:04:06.248Z,99499.13
2023-04-25T14:06:34.484Z,99502.78
2023-04-25T14:09:02.810Z,99497.44
2023-04-25T14:11:30.973Z,99497.44
2023-04-25T14:14:00.528Z,99500.09
2023-04-25T14:16:28.709Z,99385.50
2023-04-25T14:18:56.892Z,99501.97
2023-04-25T14:21:25.101Z,99422.63
2023-04-25T14:23:53.603Z,99508.13
2023-04-25T14:26:22.208Z,99515.50
2023-04-25T14:28:50.290Z,99523.38
2023-04-25T14:31:19.812Z,99520.00
2023-04-25T14:33:47.997Z,99523.22
2023-04-25T14:36:16.553Z,99519.16
2023-04-25T14:38:44.606Z,99521.53
2023-04-25T14:41:12.902Z,99515.50
2023-04-25T14:43:42.408Z,99518.84
2023-04-25T14:46:12.095Z,99524.53
2023-04-25T14:48:41.779Z,99529.56
2023-04-25T14:51:10.478Z,99529.56
2023-04-25T14:53:38.619Z,99529.56
2023-04-25T14:56:08.266Z,99536.75
2023-04-25T14:58:36.436Z,99535.22
2023-04-25T15:01:04.650Z,99534.91
2023-04-25T15:03:33.148Z,99535.75
2023-04-25T15:06:02.797Z,99517.94
2023-04-25T15:08:30.999Z,99534.91
2023-04-25T15:10:59.389Z,99535.91
2023-04-25T15:13:28.357Z,99538.75
2023-04-25T15:15:56.812Z,99540.25
2023-04-25T15:18:25.348Z,99540.25
2023-04-25T15:20:54.197Z,99548.44
2023-04-25T15:23:25.986Z,99546.63
2023-04-25T15:25:55.393Z,99545.94
2023-04-25T15:28:23.462Z,99557.34
2023-04-25T15:30:51.607Z,99556.31
2023-04-25T15:33:19.764Z,99551.28
2023-04-25T15:35:47.914Z,99554.66
2023-04-25T15:38:16.036Z,99545.63
2023-04-25T15:40:46.294Z,99454.72
2023-04-25T15:43:16.201Z,99471.78
2023-04-25T15:45:45.737Z,99556.31
2023-04-25T15:48:14.106Z,99550.97
2023-04-25T15:50:43.209Z,99472.81
2023-04-25T15:53:11.813Z,99563.38
2023-04-25T15:55:39.922Z,99568.72
2023-04-25T15:58:11.397Z,99566.38
2023-04-25T16:00:41.202Z,99574.06
2023-04-25T16:03:09.776Z,99569.69
2023-04-25T16:05:38.698Z,99577.72
2023-04-25T16:08:06.924Z,99573.56
2023-04-25T16:10:35.105Z,99567.03
2023-04-25T16:13:03.919Z,99577.72
2023-04-25T16:15:35.541Z,99575.06
2023-04-25T16:18:04.242Z,99502.97
2023-04-25T16:20:32.539Z,99582.28
2023-04-25T16:23:01.823Z,99576.91
2023-04-25T16:25:29.963Z,99578.06
2023-04-25T16:27:58.167Z,99585.94
2023-04-25T16:30:26.415Z,99586.78
2023-04-25T16:32:57.623Z,99434.47
2023-04-25T16:35:26.323Z,99592.13
2023-04-25T16:37:54.910Z,99592.13
2023-04-25T16:40:23.092Z,99592.13
2023-04-25T16:42:51.324Z,99590.31
2023-04-25T16:45:20.451Z,99517.56
2023-04-25T16:47:48.591Z,99593.78
2023-04-25T16:50:18.367Z,99599.16
2023-04-25T16:52:46.667Z,99599.16
2023-04-25T16:55:15.179Z,99597.47
2023-04-25T16:57:43.302Z,99602.84
2023-04-25T17:00:13.553Z,99598.34
2023-04-25T17:02:41.842Z,99600.16
2023-04-25T17:05:12.976Z,99602.84
2023-04-25T17:07:42.545Z,99599.47
2023-04-25T17:10:11.693Z,99597.47
2023-04-25T17:12:39.909Z,99510.88
2023-04-25T17:15:10.516Z,99597.81
2023-04-25T17:17:38.644Z,99585.38
2023-04-25T17:20:11.617Z,99607.34
2023-04-25T17:22:39.934Z,99568.25
2023-04-25T17:25:10.743Z,99606.53
2023-04-25T17:27:39.110Z,99603.84
2023-04-25T17:30:08.773Z,99511.56
2023-04-25T17:32:36.978Z,99599.47
2023-04-25T17:35:05.545Z,99479.41
2023-04-25T17:37:33.903Z,99602.00
2023-04-25T17:40:01.988Z,99595.81
2023-04-25T17:42:31.619Z,99537.41
2023-04-25T17:44:59.790Z,99592.78
2023-04-25T17:47:27.880Z,99609.19
2023-04-25T17:49:56.736Z,99602.16
2023-04-25T17:52:25.838Z,99594.75
2023-04-25T17:54:53.946Z,99604.81
2023-04-25T17:57:22.890Z,99606.53
2023-04-25T17:59:52.660Z,99470.94
2023-04-25T18:02:21.935Z,99616.22
2023-04-25T18:04:51.592Z,99603.16
2023-04-25T18:07:19.773Z,99617.22
2023-04-25T18:09:47.893Z,99606.53
2023-04-25T18:12:17.663Z,99614.56
2023-04-25T18:14:45.935Z,99617.22
2023-04-25T18:17:15.415Z,99611.88
2023-04-25T18:19:43.506Z,99617.22
2023-04-25T18:22:13.015Z,99618.03
2023-04-25T18:24:41.155Z,99619.75
2023-04-25T18:27:10.238Z,99629.59
2023-04-25T18:29:38.683Z,99624.25
2023-04-25T18:32:07.075Z,99633.28
2023-04-25T18:34:36.632Z,99630.63
2023-04-25T18:37:04.780Z,99626.56
2023-04-25T18:39:33.048Z,99559.81
2023-04-25T18:42:06.354Z,99578.28
2023-04-25T18:44:39.591Z,99626.94
2023-04-25T18:47:07.904Z,99638.31
2023-04-25T18:49:41.073Z,99517.50
2023-04-25T18:52:12.689Z,99496.34
2023-04-25T18:54:40.790Z,99633.28
2023-04-25T18:57:09.525Z,99566.50
2023-04-25T18:59:37.814Z,99644.66
2023-04-25T19:02:06.108Z,99612.78
2023-04-25T19:04:34.544Z,99647.34
2023-04-25T19:07:04.463Z,99651.72
2023-04-25T19:09:34.446Z,99679.47
2023-04-25T19:12:03.357Z,99651.34
2023-04-25T19:14:33.709Z,99665.09
2023-04-25T19:17:02.058Z,99667.94
2023-04-25T19:19:30.226Z,99662.91
2023-04-25T19:21:59.501Z,99674.09
2023-04-25T19:24:29.226Z,99669.75
2023-04-25T19:26:57.426Z,99672.44
2023-04-25T19:29:25.529Z,99664.97
2023-04-25T19:31:54.547Z,99684.81
2023-04-25T19:34:23.500Z,99683.13
2023-04-25T19:36:54.180Z,99676.94
2023-04-25T19:39:23.828Z,99693.84
2023-04-25T19:41:53.336Z,99678.41
2023-04-25T19:44:21.459Z,99693.84
2023-04-25T19:46:49.888Z,99599.81
2023-04-25T19:49:18.215Z,99695.53
2023-04-25T19:51:46.466Z,99699.03
2023-04-25T19:54:14.660Z,99535.84
2023-04-25T19:56:43.540Z,99702.56
2023-04-25T19:59:13.072Z,99691.88
2023-04-25T20:01:41.619Z,99692.84
2023-04-25T20:04:09.846Z,99706.22
2023-04-25T20:06:37.986Z,99569.94
2023-04-25T20:09:06.702Z,99691.88
2023-04-25T20:11:34.900Z,99688.19
2023-04-25T20:14:03.054Z,99648.56
2023-04-25T20:16:32.853Z,99622.38
2023-04-25T20:19:01.613Z,99680.88
2023-04-25T20:21:29.801Z,99674.53
2023-04-25T20:23:58.170Z,99672.81
2023-04-25T20:26:26.759Z,99674.84
2023-04-25T20:28:55.485Z,99678.50
2023-04-25T20:31:23.809Z,99685.88
2023-04-25T20:33:53.380Z,99692.22
2023-04-25T20:36:21.602Z,99694.88
2023-04-25T20:38:49.840Z,99693.22
2023-04-25T20:41:18.195Z,99692.38
2023-04-25T20:43:47.278Z,99696.91
2023-04-25T20:46:16.148Z,99696.06
2023-04-25T20:48:44.553Z,99690.69
2023-04-25T20:51:14.080Z,99690.69
2023-04-25T20:53:42.154Z,99695.19
2023-04-25T20:56:10.976Z,99689.84
2023-04-25T20:58:39.057Z,99691.53
2023-04-25T21:01:08.433Z,99696.22
2023-04-25T21:03:36.844Z,99689.03
2023-04-25T21:06:05.278Z,99695.19
2023-04-25T21:08:34.812Z,99690.84
2023-04-25T21:11:02.920Z,99693.53
2023-04-25T21:13:30.986Z,99626.38
2023-04-25T21:15:59.294Z,99698.88
2023-04-25T21:18:27.772Z,99696.38
2023-04-25T21:20:55.910Z,99703.38
2023-04-25T21:23:23.983Z,99662.81
2023-04-25T21:25:54.322Z,99700.56
2023-04-25T21:28:23.437Z,99695.84
2023-04-25T21:30:51.703Z,99697.22
2023-04-25T21:33:19.838Z,99696.53
2023-04-25T21:35:47.946Z,99702.56
2023-04-25T21:38:16.339Z,99697.53
2023-04-25T21:40:44.519Z,99700.88
2023-04-25T21:43:14.105Z,99700.88
2023-04-25T21:46:05.688Z,99706.22
2023-04-25T21:48:30.677Z,99704.56
2023-04-25T21:50:58.792Z,99715.25
2023-04-25T21:53:27.595Z,99716.94
2023-04-25T21:55:55.642Z,99721.47
2023-04-25T21:58:25.142Z,99717.94
2023-04-25T22:00:53.296Z,99719.75
2023-04-25T22:03:21.526Z,99733.00
2023-04-25T22:05:49.732Z,99729.50
2023-04-25T22:08:18.028Z,99731.31
2023-04-25T22:10:46.448Z,99736.69
2023-04-25T22:13:15.500Z,99731.31
2023-04-25T22:15:45.119Z,99731.63
2023-04-25T22:18:14.381Z,99737.53
2023-04-25T22:20:43.631Z,99664.78
2023-04-25T22:23:12.155Z,99744.00
2023-04-25T22:25:40.544Z,99744.72
2023-04-25T22:28:08.640Z,99736.69
2023-04-25T22:30:37.231Z,99741.19
2023-04-25T22:33:07.018Z,99744.00
2023-04-25T22:35:35.224Z,99747.38
2023-04-25T22:38:03.667Z,99747.38
2023-04-25T22:40:31.938Z,99747.38
2023-04-25T22:43:00.027Z,99751.06
2023-04-25T22:45:28.209Z,99744.00
2023-04-25T22:47:56.298Z,99751.06
2023-04-25T22:50:25.860Z,99682.03
2023-04-25T22:52:53.952Z,99759.09
2023-04-25T22:55:22.704Z,99756.44
2023-04-25T22:57:50.779Z,99767.13
2023-04-25T23:00:21.803Z,99767.13
2023-04-25T23:02:50.458Z,99757.41
2023-04-25T23:05:19.128Z,99759.09
2023-04-25T23:07:49.227Z,99767.13
2023-04-25T23:10:18.805Z,99765.13
2023-04-25T23:12:46.911Z,99761.78
2023-04-25T23:15:15.167Z,99758.09
2023-04-25T23:17:43.588Z,99757.25
2023-04-25T23:20:12.463Z,99758.09
2023-04-25T23:22:40.694Z,99759.94
2023-04-25T23:25:11.965Z,99762.59
2023-04-25T23:27:40.058Z,99758.09
2023-04-25T23:30:09.301Z,99749.38
2023-04-25T23:32:37.682Z,99742.97
2023-04-25T23:35:06.762Z,99761.78
2023-04-25T23:37:35.165Z,99760.94
2023-04-25T23:40:08.405Z,99756.44
2023-04-25T23:42:38.149Z,99665.38
2023-04-25T23:45:07.474Z,99753.75
2023-04-25T23:47:35.939Z,99751.06
2023-04-25T23:50:04.727Z,99749.38
2023-04-25T23:52:32.806Z,99751.06
2023-04-25T23:55:01.171Z,99751.06
2023-04-25T23:57:29.168Z,99657.81
2023-04-25T23:59:58.587Z,99749.38
